Etusivu
METAR-TAF:

METAR-TAF

Lentoasemat :

Wellington, Uusi-Seelanti

Wellingtonin kansainvälinen lentoasema

Leveyspiiri: 41-20S, Pituuspiiri: 174-48E, korkeus merenpinnasta: 12 m

Tämänhetkinen sää

Tämä raportti tehtiin 20 minuuttia sitten, kello 18.30 UTC
Tuuli 12 kn pohjoisesta
Lämpötila 11°C
Kosteus 82%
Ilmanpaine 1002 hPa
Näkyvyys 10 km tai enemmän

METAR: NZWN 231830Z AUTO 01012KT 9999 BKN019/// 11/08 Q1002 NOSIG

Aika: 06:50 (18:50 UTC)

Sääennuste

Tämä raportti tehtiin 1 tunti ja 48 minuuttia sitten, kello 17.02 UTC
Ennuste voimassa 23. päivästä klo 18 UTC - 24. päivään klo 18 UTC
Tuuli 15 kn pohjoisesta puuskistuen 25 kn:hen
Näkyvyys 10 km tai enemmän
Muutamia pilviä 2000 ft:n korkeudessa

TAF: NZWN 231702Z 2318/2418 36015G25KT 9999 FEW020

Säähavainnot ja -ennusteet yli 4000 lentoasemalta (METAR- ja TAF-raportit).

Käytössä olevat sääasemat on merkitty karttaan keltaisilla ja punaisilla pisteillä.

Aseta hiiri pisteen päälle nähdäksesi sääaseman nimen.

Klikkaa sitten nähdäksesi säähavainnot ja -ennusteet.

Kartan vaihtaminen: klikkaa mustalla rastilla varustettuja vihreitä pisteitä, niin voit zoomata sisään; viivalla varustettua vihreää pistettä, niin voit zoomata ulos tai vihreitä nuolia, niin pääset viereisille kartoille.


METAR-TAF: